Map

Track Data

SID SEASON NUMBER BASIN SUBBASIN NAME ISO_TIME NATURE LAT LON WMO_WIND WMO_PRES WMO_AGENCY TRACK_TYPE DIST2LAND LANDFALL IFLAG USA_AGENCY USA_ATCF_ID USA_LAT USA_LON USA_RECORD USA_STATUS USA_WIND USA_PRES USA_SSHS USA_R34_NE USA_R34_SE USA_R34_SW USA_R34_NW USA_R50_NE USA_R50_SE USA_R50_SW USA_R50_NW USA_R64_NE USA_R64_SE USA_R64_SW USA_R64_NW USA_POCI USA_ROCI USA_RMW USA_EYE TOKYO_LAT TOKYO_LON TOKYO_GRADE TOKYO_WIND TOKYO_PRES TOKYO_R50_DIR TOKYO_R50_LONG TOKYO_R50_SHORT TOKYO_R30_DIR TOKYO_R30_LONG TOKYO_R30_SHORT TOKYO_LAND CMA_LAT CMA_LON CMA_CAT CMA_WIND CMA_PRES HKO_LAT HKO_LON HKO_CAT HKO_WIND HKO_PRES NEWDELHI_LAT NEWDELHI_LON NEWDELHI_GRADE NEWDELHI_WIND NEWDELHI_PRES NEWDELHI_CI NEWDELHI_DP NEWDELHI_POCI REUNION_LAT REUNION_LON REUNION_TYPE REUNION_WIND REUNION_PRES REUNION_TNUM REUNION_CI REUNION_RMW REUNION_R34_NE REUNION_R34_SE REUNION_R34_SW REUNION_R34_NW REUNION_R50_NE REUNION_R50_SE REUNION_R50_SW REUNION_R50_NW REUNION_R64_NE REUNION_R64_SE REUNION_R64_SW REUNION_R64_NW BOM_LAT BOM_LON BOM_TYPE BOM_WIND BOM_PRES BOM_TNUM BOM_CI BOM_RMW BOM_R34_NE BOM_R34_SE BOM_R34_SW BOM_R34_NW BOM_R50_NE BOM_R50_SE BOM_R50_SW BOM_R50_NW BOM_R64_NE BOM_R64_SE BOM_R64_SW BOM_R64_NW BOM_ROCI BOM_POCI BOM_EYE BOM_POS_METHOD BOM_PRES_METHOD NADI_LAT NADI_LON NADI_CAT NADI_WIND NADI_PRES WELLINGTON_LAT WELLINGTON_LON WELLINGTON_WIND WELLINGTON_PRES DS824_LAT DS824_LON DS824_STAGE DS824_WIND DS824_PRES TD9636_LAT TD9636_LON TD9636_STAGE TD9636_WIND TD9636_PRES TD9635_LAT TD9635_LON TD9635_WIND TD9635_PRES TD9635_ROCI NEUMANN_LAT NEUMANN_LON NEUMANN_CLASS NEUMANN_WIND NEUMANN_PRES MLC_LAT MLC_LON MLC_CLASS MLC_WIND MLC_PRES USA_GUST BOM_GUST BOM_GUST_PER REUNION_GUST REUNION_GUST_PER USA_SEAHGT USA_SEARAD_NE USA_SEARAD_SE USA_SEARAD_SW USA_SEARAD_NW STORM_SPEED STORM_DIR
1873256N13296 1873 16 NA CS NOT_NAMED 1873-09-12 12:00:00 TS 13.0000 -64.0000 main 268 268 _____________O -1 13.0000 -64.0000 TS 35 13 290
1873256N13296 1873 16 NA CS NOT_NAMED 1873-09-12 15:00:00 TS 13.2103 -64.6097 main 294 294 _____________P -1 13.2103 -64.6097 TS 35 12 289
1873256N13296 1873 16 NA CS NOT_NAMED 1873-09-12 18:00:00 TS 13.4000 -65.2000 main 325 320 _____________O -1 13.4000 -65.2000 TS 35 12 287
1873256N13296 1873 16 NA CS NOT_NAMED 1873-09-12 21:00:00 TS 13.5573 -65.7576 main 336 335 _____________P -1 13.5573 -65.7576 TS 35 11 286
1873256N13296 1873 16 NA CS NOT_NAMED 1873-09-13 00:00:00 TS 13.7000 -66.3000 main 347 339 _____________O -1 13.7000 -66.3000 TS 35 11 285
1873256N13296 1873 16 NA CS NOT_NAMED 1873-09-13 03:00:00 TS 13.8499 -66.8501 main 333 328 _____________P -1 13.8499 -66.8501 TS 35 11 286
1873256N13296 1873 16 NA CS NOT_NAMED 1873-09-13 06:00:00 TS 14.0000 -67.4000 main 328 311 _____________O -1 14.0000 -67.4000 TS 35 11 285
1873256N13296 1873 16 NA CS NOT_NAMED 1873-09-13 09:00:00 TS 14.1423 -67.9426 main 311 289 _____________P -1 14.1423 -67.9426 TS 35 11 286
1873256N13296 1873 16 NA CS NOT_NAMED 1873-09-13 12:00:00 TS 14.3000 -68.5000 main 289 279 _____________O -1 14.3000 -68.5000 TS 35 12 288
1873256N13296 1873 16 NA CS NOT_NAMED 1873-09-13 15:00:00 TS 14.4999 -69.0925 main 282 279 _____________P -1 14.4999 -69.0925 TS 35 12 289
1873256N13296 1873 16 NA CS NOT_NAMED 1873-09-13 18:00:00 TS 14.7000 -69.7000 main 291 291 _____________O -1 14.7000 -69.7000 TS 35 12 287
1873256N13296 1873 16 NA CS NOT_NAMED 1873-09-13 21:00:00 TS 14.8573 -70.3001 main 308 292 _____________P -1 14.8573 -70.3001 TS 35 12 285
1873256N13296 1873 16 NA CS NOT_NAMED 1873-09-14 00:00:00 TS 15.0000 -70.9000 main 295 279 _____________O -1 15.0000 -70.9000 TS 35 12 284
1873256N13296 1873 16 NA CS NOT_NAMED 1873-09-14 03:00:00 TS 15.1499 -71.5076 main 280 262 _____________P -1 15.1499 -71.5076 TS 35 12 285
1873256N13296 1873 16 NA CS NOT_NAMED 1873-09-14 06:00:00 TS 15.3000 -72.1000 main 268 264 _____________O -1 15.3000 -72.1000 TS 35 11 285
1873256N13296 1873 16 NA CS NOT_NAMED 1873-09-14 09:00:00 TS 15.4498 -72.6501 main 282 272 _____________P -1 15.4498 -72.6501 TS 35 11 286
1873256N13296 1873 16 NA CS NOT_NAMED 1873-09-14 12:00:00 TS 15.6000 -73.2000 main 276 257 _____________O -1 15.6000 -73.2000 TS 35 12 286
1873256N13296 1873 16 NA CS NOT_NAMED 1873-09-14 15:00:00 TS 15.7575 -73.8000 main 246 237 _____________P -1 15.7575 -73.8000 TS 35 12 285
1873256N13296 1873 16 NA CS NOT_NAMED 1873-09-14 18:00:00 TS 15.9000 -74.4000 main 240 239 _____________O -1 15.9000 -74.4000 TS 35 11 283
1873256N13296 1873 16 NA CS NOT_NAMED 1873-09-14 21:00:00 TS 16.0073 -74.9576 main 248 214 _____________P -1 16.0073 -74.9576 TS 35 11 281
1873256N13296 1873 16 NA CS NOT_NAMED 1873-09-15 00:00:00 TS 16.1000 -75.5000 main 214 191 _____________O -1 16.1000 -75.5000 TS 35 11 280
1873256N13296 1873 16 NA CS NOT_NAMED 1873-09-15 03:00:00 TS 16.1999 -76.0501 main 190 169 _____________P -1 16.1999 -76.0501 TS 35 11 281
1873256N13296 1873 16 NA CS NOT_NAMED 1873-09-15 06:00:00 TS 16.3000 -76.6000 main 169 145 _____________O -1 16.3000 -76.6000 TS 35 11 280
1873256N13296 1873 16 NA CS NOT_NAMED 1873-09-15 09:00:00 TS 16.3772 -77.1278 main 145 138 _____________P -1 16.3772 -77.1278 TS 37 11 281
1873256N13296 1873 16 NA CS NOT_NAMED 1873-09-15 12:00:00 TS 16.5000 -77.7000 main 144 143 _____________O -1 16.5000 -77.7000 TS 40 12 286
1873256N13296 1873 16 NA CS NOT_NAMED 1873-09-15 15:00:00 TS 16.7275 -78.3774 main 153 148 _____________P -1 16.7275 -78.3774 TS 40 14 290
1873256N13296 1873 16 NA CS NOT_NAMED 1873-09-15 18:00:00 TS 17.0000 -79.1000 main 153 153 _____________O -1 17.0000 -79.1000 TS 40 15 291
1873256N13296 1873 16 NA CS NOT_NAMED 1873-09-15 21:00:00 TS 17.2498 -79.8002 main 185 179 _____________P -1 17.2498 -79.8002 TS 40 14 291
1873256N13296 1873 16 NA CS NOT_NAMED 1873-09-16 00:00:00 TS 17.5000 -80.5000 main 235 235 _____________O -1 17.5000 -80.5000 TS 40 14 290
1873256N13296 1873 16 NA CS NOT_NAMED 1873-09-16 03:00:00 TS 17.7498 -81.2077 main 301 299 _____________P -1 17.7498 -81.2077 TS 40 14 291
1873256N13296 1873 16 NA CS NOT_NAMED 1873-09-16 06:00:00 TS 18.0000 -81.9000 main 341 323 _____________O -1 18.0000 -81.9000 TS 40 14 290
1873256N13296 1873 16 NA CS NOT_NAMED 1873-09-16 09:00:00 TS 18.2275 -82.5952 main 323 316 _____________P -1 18.2275 -82.5952 TS 42 13 292
1873256N13296 1873 16 NA CS NOT_NAMED 1873-09-16 12:00:00 TS 18.5000 -83.2000 main 323 291 _____________O -1 18.5000 -83.2000 TS 45 12 303
1873256N13296 1873 16 NA CS NOT_NAMED 1873-09-16 15:00:00 TS 18.8772 -83.6452 main 291 266 _____________P -1 18.8772 -83.6452 TS 45 11 317
1873256N13296 1873 16 NA CS NOT_NAMED 1873-09-16 18:00:00 TS 19.3000 -84.0000 main 266 235 _____________O -1 19.3000 -84.0000 TS 45 11 321
1873256N13296 1873 16 NA CS NOT_NAMED 1873-09-16 21:00:00 TS 19.6999 -84.3577 main 235 190 _____________P -1 19.6999 -84.3577 TS 47 10 321
1873256N13296 1873 16 NA CS NOT_NAMED 1873-09-17 00:00:00 TS 20.1000 -84.7000 main 190 146 _____________O -1 20.1000 -84.7000 TS 50 10 321
1873256N13296 1873 16 NA CS NOT_NAMED 1873-09-17 03:00:00 TS 20.4999 -85.0502 main 148 118 _____________P -1 20.4999 -85.0502 TS 50 10 321
1873256N13296 1873 16 NA CS NOT_NAMED 1873-09-17 06:00:00 TS 20.9000 -85.4000 main 118 93 _____________O -1 20.9000 -85.4000 TS 50 11 319
1873256N13296 1873 16 NA CS NOT_NAMED 1873-09-17 09:00:00 TS 21.2926 -85.7948 main 95 79 _____________P -1 21.2926 -85.7948 TS 52 10 321
1873256N13296 1873 16 NA CS NOT_NAMED 1873-09-17 12:00:00 TS 21.7000 -86.1000 main 85 83 _____________O -1 21.7000 -86.1000 TS 55 9 336
1873256N13296 1873 16 NA GM NOT_NAMED 1873-09-17 15:00:00 TS 22.1424 -86.1954 main 106 106 _____________P -1 22.1424 -86.1954 TS 57 9 355
1873256N13296 1873 16 NA GM NOT_NAMED 1873-09-17 18:00:00 TS 22.6000 -86.2000 main 146 146 _____________O -1 22.6000 -86.2000 TS 60 9 358
1873256N13296 1873 16 NA GM NOT_NAMED 1873-09-17 21:00:00 TS 23.0500 -86.2352 main 174 174 _____________P -1 23.0500 -86.2352 TS 60 14 298
1873256N13296 1873 16 NA GM NOT_NAMED 1873-09-18 00:00:00 TS 23.2333 -87.5000 70 hurdat_atl main 191 190 O____________O hurdat_atl AL031873 22.7000 -89.9000 HU 70 1 23.5000 -86.3000 TS 60 18 285
1873256N13296 1873 16 NA GM NOT_NAMED 1873-09-18 03:00:00 TS 23.5175 -88.1812 main 223 223 P____________P AL031873 23.0850 -89.9200 HU 70 1 23.9500 -86.4424 TS 62 12 302
1873256N13296 1873 16 NA GM NOT_NAMED 1873-09-18 06:00:00 TS 23.8600 -88.5800 70 hurdat_atl main 268 268 O____________O hurdat_atl AL031873 23.5000 -89.9000 HU 70 1 24.4000 -86.6000 HU 65 9 323
1873256N13296 1873 16 NA GM NOT_NAMED 1873-09-18 09:00:00 TS 24.2583 -88.7830 main 313 313 P____________P AL031873 23.9699 -89.8022 HU 70 1 24.8350 -86.7447 HU 65 9 355
1873256N13296 1873 16 NA GM NOT_NAMED 1873-09-18 12:00:00 TS 24.7667 -88.6667 70 hurdat_atl main 369 368 O____________O hurdat_atl AL031873 24.5000 -89.6000 HU 70 1 25.3000 -86.8000 HU 65 11 16
1873256N13296 1873 16 NA GM NOT_NAMED 1873-09-18 15:00:00 TS 25.3399 -88.4358 main 418 359 P____________P AL031873 25.0923 -89.3098 HU 70 1 25.8350 -86.6879 HU 65 13 24
1873256N13296 1873 16 NA GM NOT_NAMED 1873-09-18 18:00:00 TS 25.9333 -88.1000 70 hurdat_atl main 359 311 O____________O hurdat_atl AL031873 25.7000 -88.9000 HU 70 1 26.4000 -86.5000 HU 65 13 29
1873256N13296 1873 16 NA GM NOT_NAMED 1873-09-18 21:00:00 TS 26.4908 -87.7130 main 311 284 P____________P AL031873 26.2575 -88.3872 HU 70 1 26.9574 -86.3647 HU 65 13 34
1873256N13296 1873 16 NA GM NOT_NAMED 1873-09-19 00:00:00 TS 27.0333 -87.2667 70 hurdat_atl main 284 272 O____________O hurdat_atl AL031873 26.8000 -87.8000 HU 70 1 27.5000 -86.2000 HU 65 13 37
1873256N13296 1873 16 NA GM NOT_NAMED 1873-09-19 03:00:00 TS 27.5638 -86.8126 main 271 198 P____________P AL031873 27.3420 -87.2290 HU 70 1 28.0074 -85.9797 HU 65 14 39
1873256N13296 1873 16 NA GM NOT_NAMED 1873-09-19 06:00:00 TS 28.1000 -86.3000 70 hurdat_atl main 198 126 O____________O hurdat_atl AL031873 27.9000 -86.6000 HU 70 1 28.5000 -85.7000 HU 65 14 42
1873256N13296 1873 16 NA GM NOT_NAMED 1873-09-19 09:00:00 TS 28.6347 -85.7119 main 126 55 P____________P AL031873 28.4524 -85.8596 HU 70 1 28.9995 -85.4166 HU 65 16 44
1873256N13296 1873 16 NA GM NOT_NAMED 1873-09-19 12:00:00 TS 29.2333 -85.0667 70 hurdat_atl main 55 0 O____________O hurdat_atl AL031873 29.1000 -85.1000 HU 70 1 29.5000 -85.0000 HU 65 17 42
1873256N13296 1873 16 NA GM NOT_NAMED 1873-09-19 15:00:00 TS 29.9359 -84.3892 70 hurdat_atl main 0 0 O____________P hurdat_atl AL031873 29.9000 -84.4000 L HU 70 1 30.0076 -84.3675 HU 62 20 45
1873256N13296 1873 16 NA NA NOT_NAMED 1873-09-19 18:00:00 TS 30.6333 -83.4667 60 hurdat_atl main 0 0 O____________O hurdat_atl AL031873 30.7000 -83.4000 TS 60 0 30.5000 -83.6000 TS 60 23 50
1873256N13296 1873 16 NA NA NOT_NAMED 1873-09-19 21:00:00 TS 31.3905 -82.3612 main 0 0 P____________P AL031873 31.6345 -82.0841 TS 55 0 30.9023 -82.9154 TS 55 25 54
1873256N13296 1873 16 NA NA NOT_NAMED 1873-09-20 00:00:00 TS 32.1333 -81.0667 50 hurdat_atl main 0 0 O____________O hurdat_atl AL031873 32.5000 -80.6000 TS 50 0 31.4000 -82.0000 TS 50 27 59
1873256N13296 1873 16 NA NA NOT_NAMED 1873-09-20 03:00:00 TS 32.7799 -79.6748 main 9 9 P____________P AL031873 33.0795 -79.2337 TS 55 0 32.1806 -80.5569 TS 57 27 64
1873256N13296 1873 16 NA NA NOT_NAMED 1873-09-20 06:00:00 TS 33.3333 -78.2000 60 hurdat_atl main 66 48 O____________O hurdat_atl AL031873 33.5000 -77.8000 TS 60 0 33.0000 -79.0000 HU 65 992 26 67
1873256N13296 1873 16 NA NA NOT_NAMED 1873-09-20 09:00:00 TS 33.7730 -76.8352 main 95 82 P____________P AL031873 33.8987 -76.2539 TS 65 1 33.5216 -77.9979 HU 67 25 70
1873256N13296 1873 16 NA NA NOT_NAMED 1873-09-20 12:00:00 TS 34.2000 -75.3800 70 hurdat_atl main 113 113 O____________O hurdat_atl AL031873 34.2000 -74.5000 HU 70 1 34.2000 -76.7000 HU 70 30 69
1873256N13296 1873 16 NA NA NOT_NAMED 1873-09-20 15:00:00 TS 34.8786 -73.4082 main 214 214 P____________P AL031873 34.3917 -72.4784 HU 70 1 35.3655 -74.3380 HU 70 39 63
1873256N13296 1873 16 NA NA NOT_NAMED 1873-09-20 18:00:00 TS 35.9667 -71.1000 70 hurdat_atl main 395 395 O____________O hurdat_atl AL031873 34.5000 -70.3000 HU 70 1 36.7000 -71.5000 HU 70 47 51
1873256N13296 1873 16 NA NA NOT_NAMED 1873-09-20 21:00:00 TS 37.8611 -68.8577 main 429 409 _____________P AL031873 HU -1 37.8611 -68.8577 HU 65 50 52
1873256N13296 1873 16 NA NA NOT_NAMED 1873-09-21 00:00:00 TS 39.1000 -66.1000 main 438 378 _____________O -1 39.1000 -66.1000 TS 60 53 60
1873256N13296 1873 16 NA NA NOT_NAMED 1873-09-21 03:00:00 TS 40.5208 -63.0070 main 383 373 _____________P -1 40.5208 -63.0070 TS 57 55 58
1873256N13296 1873 16 NA NA NOT_NAMED 1873-09-21 06:00:00 TS 42.0000 -59.9000 main 368 347 _____________O -1 42.0000 -59.9000 TS 55 52 57
1873256N13296 1873 16 NA NA NOT_NAMED 1873-09-21 09:00:00 TS 43.3824 -57.0723 main 356 222 _____________P -1 43.3824 -57.0723 TS 52 49 55
1873256N13296 1873 16 NA NA NOT_NAMED 1873-09-21 12:00:00 TS 44.8000 -54.4000 main 209 94 _____________O -1 44.8000 -54.4000 TS 50 48 52
1873256N13296 1873 16 NA NA NOT_NAMED 1873-09-21 15:00:00 TS 46.2915 -51.7416 main 113 113 _____________P -1 46.2915 -51.7416 TS 50 48 51
1873256N13296 1873 16 NA NA NOT_NAMED 1873-09-21 18:00:00 ET 47.8000 -49.0000 main 270 _____________O -1 47.8000 -49.0000 EX 50 48 51

About IBTrACS Database

This database is a web-friendly format of International Best Track Archive for Climate Stewardship (IBTrACS), a global best track data archive curated by NOAA dating back to 1842.

Updated: 2021-12-08